createdAt,value
2018-02-09T00:02:10.427Z,66.23
2018-02-09T00:04:37.876Z,63.40
2018-02-09T00:07:05.374Z,61.80
2018-02-09T00:09:32.953Z,69.37
2018-02-09T00:12:00.481Z,70.57
2018-02-09T00:14:28.027Z,67.73
2018-02-09T00:16:56.237Z,65.60
2018-02-09T00:19:23.908Z,64.47
2018-02-09T00:21:51.360Z,63.53
2018-02-09T00:24:18.820Z,69.07
2018-02-09T00:26:46.345Z,61.50
2018-02-09T00:29:13.930Z,72.03
2018-02-09T00:31:41.544Z,60.47
2018-02-09T00:34:09.005Z,66.30
2018-02-09T00:36:36.545Z,73.08
2018-02-09T00:39:04.023Z,66.80
2018-02-09T00:41:31.718Z,62.33
2018-02-09T00:43:59.993Z,70.32
2018-02-09T00:46:27.614Z,67.43
2018-02-09T00:48:55.089Z,66.70
2018-02-09T00:51:22.533Z,67.63
2018-02-09T00:53:50.483Z,66.03
2018-02-09T00:56:17.907Z,64.40
2018-02-09T00:58:45.523Z,70.47
2018-02-09T01:01:12.984Z,68.15
2018-02-09T01:03:40.441Z,66.80
2018-02-09T01:06:07.905Z,66.43
2018-02-09T01:08:35.352Z,63.85
2018-02-09T01:11:02.842Z,61.95
2018-02-09T01:13:30.509Z,66.53
2018-02-09T01:15:58.001Z,67.63
2018-02-09T01:18:25.797Z,59.47
2018-02-09T01:20:53.247Z,68.47
2018-02-09T01:23:20.760Z,67.53
2018-02-09T01:25:48.234Z,62.07
2018-02-09T01:28:15.657Z,73.23
2018-02-09T01:30:43.288Z,71.90
2018-02-09T01:33:10.735Z,69.10
2018-02-09T01:35:38.176Z,64.33
2018-02-09T01:38:05.633Z,68.96
2018-02-09T01:40:33.106Z,64.90
2018-02-09T01:43:00.902Z,66.80
2018-02-09T01:45:28.410Z,68.00
2018-02-09T01:47:55.841Z,65.60
2018-02-09T01:50:23.353Z,65.27
2018-02-09T01:52:50.800Z,70.37
2018-02-09T01:55:18.304Z,71.07
2018-02-09T01:57:45.815Z,65.20
2018-02-09T02:00:13.325Z,61.00
2018-02-09T02:02:40.824Z,64.80
2018-02-09T02:05:08.329Z,64.50
2018-02-09T02:07:35.786Z,67.30
2018-02-09T02:10:03.238Z,65.37
2018-02-09T02:12:30.737Z,64.97
2018-02-09T02:14:58.169Z,67.25
2018-02-09T02:17:25.612Z,67.63
2018-02-09T02:19:53.071Z,61.20
2018-02-09T02:22:20.626Z,59.83
2018-02-09T02:24:48.086Z,63.00
2018-02-09T02:27:15.531Z,75.47
2018-02-09T02:29:43.162Z,69.13
2018-02-09T02:32:10.632Z,63.43
2018-02-09T02:34:38.364Z,69.37
2018-02-09T02:37:05.838Z,61.73
2018-02-09T02:39:33.301Z,59.85
2018-02-09T02:42:00.939Z,66.03
2018-02-09T02:44:28.416Z,66.33
2018-02-09T02:46:55.855Z,64.93
2018-02-09T02:49:23.378Z,67.13
2018-02-09T02:51:50.812Z,66.23
2018-02-09T02:54:18.331Z,67.00
2018-02-09T02:56:45.757Z,67.70
2018-02-09T02:59:13.253Z,64.75
2018-02-09T03:01:40.696Z,67.33
2018-02-09T03:04:08.142Z,60.17
2018-02-09T03:06:35.563Z,65.82
2018-02-09T03:09:03.085Z,65.33
2018-02-09T03:11:30.501Z,64.80
2018-02-09T03:13:57.932Z,62.37
2018-02-09T03:16:25.377Z,66.53
2018-02-09T03:18:52.841Z,62.63
2018-02-09T03:21:20.289Z,65.47
2018-02-09T03:23:47.716Z,64.27
2018-02-09T03:26:15.171Z,68.00
2018-02-09T03:28:42.618Z,66.55
2018-02-09T03:31:10.064Z,66.67
2018-02-09T03:33:37.513Z,62.95
2018-02-09T03:36:05.121Z,68.73
2018-02-09T03:38:32.654Z,75.30
2018-02-09T03:41:00.621Z,65.37
2018-02-09T03:43:28.152Z,66.03
2018-02-09T03:45:55.610Z,60.57
2018-02-09T03:48:23.045Z,68.57
2018-02-09T03:50:50.517Z,71.62
2018-02-09T03:53:17.943Z,59.90
2018-02-09T03:55:45.370Z,66.95
2018-02-09T03:58:12.812Z,65.10
2018-02-09T04:00:40.266Z,60.08
2018-02-09T04:03:07.719Z,69.03
2018-02-09T04:05:35.149Z,69.47
2018-02-09T04:08:02.626Z,67.18
2018-02-09T04:10:30.867Z,70.93
2018-02-09T04:12:58.432Z,64.43
2018-02-09T04:15:25.854Z,65.80
2018-02-09T04:17:53.320Z,61.07
2018-02-09T04:20:20.769Z,63.80
2018-02-09T04:22:48.226Z,65.23
2018-02-09T04:25:15.665Z,69.55
2018-02-09T04:27:43.157Z,68.60
2018-02-09T04:30:10.604Z,66.17
2018-02-09T04:32:38.483Z,60.90
2018-02-09T04:35:05.946Z,65.65
2018-02-09T04:37:33.376Z,68.67
2018-02-09T04:40:00.945Z,67.43
2018-02-09T04:42:28.414Z,67.23
2018-02-09T04:44:55.849Z,64.47
2018-02-09T04:47:23.342Z,64.30
2018-02-09T04:49:50.834Z,66.20
2018-02-09T04:52:18.304Z,66.97
2018-02-09T04:54:45.790Z,66.40
2018-02-09T04:57:13.209Z,66.33
2018-02-09T04:59:40.658Z,65.67
2018-02-09T05:02:08.097Z,65.03
2018-02-09T05:04:35.553Z,65.50
2018-02-09T05:07:02.984Z,66.07
2018-02-09T05:09:31.349Z,66.80
2018-02-09T05:11:58.793Z,68.90
2018-02-09T05:14:26.236Z,66.77
2018-02-09T05:16:53.682Z,69.03
2018-02-09T05:19:21.132Z,69.90
2018-02-09T05:21:48.575Z,69.93
2018-02-09T05:24:15.993Z,65.70
2018-02-09T05:26:43.489Z,67.10
2018-02-09T05:29:10.908Z,62.92
2018-02-09T05:31:38.362Z,64.70
2018-02-09T05:34:05.833Z,67.43
2018-02-09T05:36:33.275Z,66.27
2018-02-09T05:39:01.206Z,62.72
2018-02-09T05:41:28.657Z,67.97
2018-02-09T05:43:56.182Z,67.80
2018-02-09T05:46:23.654Z,62.23
2018-02-09T05:48:51.088Z,67.18
2018-02-09T05:51:18.588Z,69.22
2018-02-09T05:53:46.134Z,68.12
2018-02-09T05:56:13.584Z,63.15
2018-02-09T05:58:41.017Z,67.12
2018-02-09T06:01:08.502Z,67.63
2018-02-09T06:03:35.936Z,67.32
2018-02-09T06:06:03.372Z,66.30
2018-02-09T06:08:31.534Z,63.55
2018-02-09T06:10:59.353Z,64.80
2018-02-09T06:13:26.809Z,62.20
2018-02-09T06:15:54.258Z,66.53
2018-02-09T06:18:21.711Z,64.87
2018-02-09T06:20:49.149Z,67.45
2018-02-09T06:23:16.592Z,62.88
2018-02-09T06:25:44.043Z,69.27
2018-02-09T06:28:11.529Z,68.80
2018-02-09T06:30:38.960Z,65.53
2018-02-09T06:33:06.458Z,66.13
2018-02-09T06:35:33.880Z,62.07
2018-02-09T06:38:01.382Z,69.70
2018-02-09T06:40:28.824Z,68.73
2018-02-09T06:42:56.274Z,68.03
2018-02-09T06:45:23.702Z,65.23
2018-02-09T06:47:51.124Z,70.80
2018-02-09T06:50:18.681Z,69.60
2018-02-09T06:52:46.262Z,67.03
2018-02-09T06:55:13.722Z,64.07
2018-02-09T06:57:46.726Z,64.70
2018-02-09T07:00:14.177Z,65.87
2018-02-09T07:02:41.650Z,69.53
2018-02-09T07:05:09.105Z,65.28
2018-02-09T07:07:36.531Z,65.13
2018-02-09T07:10:03.996Z,66.60
2018-02-09T07:12:31.552Z,67.73
2018-02-09T07:14:59.005Z,63.27
2018-02-09T07:17:26.523Z,64.60
2018-02-09T07:19:54.004Z,70.57
2018-02-09T07:22:21.631Z,70.43
2018-02-09T07:24:49.124Z,66.97
2018-02-09T07:27:16.546Z,66.27
2018-02-09T07:29:44.011Z,60.10
2018-02-09T07:32:11.477Z,66.40
2018-02-09T07:34:38.920Z,58.50
2018-02-09T07:37:06.416Z,66.05
2018-02-09T07:39:33.917Z,66.37
2018-02-09T07:42:05.722Z,70.47
2018-02-09T07:44:33.151Z,68.77
2018-02-09T07:47:00.596Z,64.20
2018-02-09T07:49:28.025Z,69.97
2018-02-09T07:51:55.488Z,67.68
2018-02-09T07:54:22.941Z,70.30
2018-02-09T07:56:51.229Z,70.73
2018-02-09T07:59:18.666Z,66.27
2018-02-09T08:01:46.108Z,65.67
2018-02-09T08:04:13.575Z,65.68
2018-02-09T08:06:41.017Z,65.55
2018-02-09T08:09:08.459Z,60.30
2018-02-09T08:11:35.984Z,60.83
2018-02-09T08:14:03.498Z,66.13
2018-02-09T08:16:31.761Z,70.72
2018-02-09T08:18:59.204Z,64.67
2018-02-09T08:21:26.660Z,66.93
2018-02-09T08:23:54.104Z,69.20
2018-02-09T08:26:21.615Z,65.20
2018-02-09T08:28:49.073Z,68.83
2018-02-09T08:31:16.569Z,63.97
2018-02-09T08:33:44.025Z,64.60
2018-02-09T08:36:11.461Z,67.27
2018-02-09T08:38:38.941Z,66.00
2018-02-09T08:41:06.368Z,68.00
2018-02-09T08:43:33.907Z,63.80
2018-02-09T08:46:01.880Z,62.75
2018-02-09T08:48:29.356Z,63.70
2018-02-09T08:50:56.785Z,63.72
2018-02-09T08:53:24.238Z,61.70
2018-02-09T08:55:51.690Z,61.60
2018-02-09T08:58:20.133Z,63.20
2018-02-09T09:00:47.706Z,64.68
2018-02-09T09:03:15.237Z,61.17
2018-02-09T09:05:42.676Z,67.72
2018-02-09T09:08:10.118Z,65.27
2018-02-09T09:10:37.556Z,64.90
2018-02-09T09:13:04.998Z,63.00
2018-02-09T09:15:37.258Z,63.63
2018-02-09T09:18:04.685Z,64.87
2018-02-09T09:20:32.241Z,62.90
2018-02-09T09:22:59.707Z,69.57
2018-02-09T09:25:27.174Z,61.97
2018-02-09T09:27:54.659Z,70.73
2018-02-09T09:30:22.209Z,64.67
2018-02-09T09:32:50.108Z,70.00
2018-02-09T09:35:17.573Z,63.33
2018-02-09T09:37:45.015Z,64.03
2018-02-09T09:40:12.529Z,70.07
2018-02-09T09:42:39.969Z,57.03
2018-02-09T09:45:07.487Z,62.73
2018-02-09T09:47:34.939Z,62.63
2018-02-09T09:50:02.390Z,67.47
2018-02-09T09:52:29.869Z,61.57
2018-02-09T09:54:57.312Z,61.87
2018-02-09T09:57:24.752Z,64.13
2018-02-09T09:59:52.192Z,65.70
2018-02-09T10:02:31.439Z,59.23
2018-02-09T10:04:58.859Z,63.83
2018-02-09T10:07:26.367Z,63.10
2018-02-09T10:09:53.835Z,62.10
2018-02-09T10:12:21.636Z,60.43
2018-02-09T10:14:49.081Z,59.03
2018-02-09T10:17:16.524Z,59.75
2018-02-09T10:19:43.958Z,57.10
2018-02-09T10:22:11.416Z,65.20
2018-02-09T10:24:38.849Z,57.73
2018-02-09T10:27:06.299Z,58.83
2018-02-09T10:29:33.800Z,64.17
2018-02-09T10:32:01.266Z,60.38
2018-02-09T10:34:28.700Z,54.83
2018-02-09T10:36:56.154Z,61.37
2018-02-09T10:39:23.620Z,59.67
2018-02-09T10:41:51.074Z,57.77
2018-02-09T10:44:18.529Z,61.55
2018-02-09T10:46:45.989Z,60.77
2018-02-09T10:49:13.432Z,59.93
2018-02-09T10:51:40.932Z,58.20
2018-02-09T10:54:08.456Z,58.13
2018-02-09T10:56:35.897Z,55.30
2018-02-09T10:59:03.347Z,52.57
2018-02-09T11:01:36.769Z,59.17
2018-02-09T11:04:04.222Z,63.33
2018-02-09T11:06:32.396Z,57.43
2018-02-09T11:08:59.855Z,64.20
2018-02-09T11:11:27.321Z,62.37
2018-02-09T11:13:54.762Z,59.67
2018-02-09T11:16:22.204Z,61.83
2018-02-09T11:18:49.662Z,71.75
2018-02-09T11:21:17.087Z,64.43
2018-02-09T11:23:44.535Z,63.78
2018-02-09T11:26:11.973Z,65.17
2018-02-09T11:28:39.416Z,58.33
2018-02-09T11:31:06.869Z,66.30
2018-02-09T11:33:34.326Z,61.47
2018-02-09T11:36:04.732Z,62.97
2018-02-09T11:38:32.612Z,65.32
2018-02-09T11:41:00.130Z,67.17
2018-02-09T11:43:27.618Z,66.13
2018-02-09T11:45:55.090Z,61.57
2018-02-09T11:48:22.545Z,65.75
2018-02-09T11:50:50.090Z,62.47
2018-02-09T11:53:17.537Z,58.00
2018-02-09T11:55:45.000Z,64.20
2018-02-09T11:58:12.459Z,67.07
2018-02-09T12:00:39.916Z,67.20
2018-02-09T12:03:07.417Z,65.45
2018-02-09T12:05:34.864Z,65.97
2018-02-09T12:08:02.520Z,58.30
2018-02-09T12:10:30.059Z,63.77
2018-02-09T12:12:57.525Z,62.23
2018-02-09T12:15:24.971Z,62.97
2018-02-09T12:17:52.433Z,60.30
2018-02-09T12:20:19.948Z,66.30
2018-02-09T12:22:47.403Z,63.93
2018-02-09T12:25:14.954Z,64.90
2018-02-09T12:27:42.458Z,62.73
2018-02-09T12:30:09.972Z,59.73
2018-02-09T12:32:38.046Z,61.20
2018-02-09T12:35:05.504Z,57.70
2018-02-09T12:37:33.004Z,67.37
2018-02-09T12:40:00.473Z,63.50
2018-02-09T12:42:27.944Z,62.93
2018-02-09T12:44:55.409Z,63.73
2018-02-09T12:47:22.866Z,65.40
2018-02-09T12:49:50.340Z,63.83
2018-02-09T12:52:17.775Z,58.13
2018-02-09T12:54:45.217Z,59.97
2018-02-09T12:57:12.721Z,61.25
2018-02-09T12:59:40.214Z,54.30
2018-02-09T13:02:07.716Z,53.03
2018-02-09T13:04:35.223Z,60.17
2018-02-09T13:07:02.933Z,62.00
2018-02-09T13:09:30.469Z,56.37
2018-02-09T13:11:57.916Z,58.22
2018-02-09T13:14:37.153Z,64.60
2018-02-09T13:17:04.588Z,57.13
2018-02-09T13:19:32.936Z,56.55
2018-02-09T13:22:00.372Z,56.83
2018-02-09T13:24:27.821Z,62.42
2018-02-09T13:26:55.253Z,59.60
2018-02-09T13:29:22.740Z,52.27
2018-02-09T13:31:50.171Z,60.23
2018-02-09T13:34:17.643Z,61.40
2018-02-09T13:50:25.730Z,54.10
2018-02-09T13:52:53.190Z,58.07
2018-02-09T13:55:20.644Z,56.70
2018-02-09T13:57:48.130Z,53.75
2018-02-09T14:00:15.571Z,53.63
2018-02-09T14:02:43.068Z,56.30
2018-02-09T14:05:10.496Z,61.43
2018-02-09T14:07:38.312Z,63.87
2018-02-09T14:10:05.779Z,56.37
2018-02-09T14:12:33.241Z,57.60
2018-02-09T14:15:00.676Z,55.60
2018-02-09T14:17:28.135Z,60.22
2018-02-09T14:19:55.585Z,58.00
2018-02-09T14:22:23.088Z,55.07
2018-02-09T14:24:50.526Z,60.23
2018-02-09T14:27:18.039Z,58.40
2018-02-09T14:29:45.519Z,58.83
2018-02-09T14:32:12.956Z,61.07
2018-02-09T14:34:40.398Z,60.87
2018-02-09T14:37:07.848Z,57.80
2018-02-09T14:39:35.295Z,57.47
2018-02-09T14:42:03.261Z,54.53
2018-02-09T14:44:30.712Z,62.57
2018-02-09T14:46:58.169Z,53.77
2018-02-09T14:49:25.739Z,56.93
2018-02-09T14:51:53.158Z,57.45
2018-02-09T14:54:20.619Z,51.08
2018-02-09T14:56:48.056Z,54.63
2018-02-09T14:59:15.531Z,52.17
2018-02-09T15:01:43.009Z,50.10
2018-02-09T15:04:10.464Z,53.70
2018-02-09T15:06:37.945Z,56.77
2018-02-09T15:09:05.384Z,59.07
2018-02-09T15:11:34.320Z,58.60
2018-02-09T15:14:01.745Z,53.53
2018-02-09T15:16:29.252Z,58.80
2018-02-09T15:18:56.713Z,59.53
2018-02-09T15:21:24.176Z,60.07
2018-02-09T15:23:51.642Z,59.50
2018-02-09T15:26:19.135Z,56.47
2018-02-09T15:28:46.588Z,58.50
2018-02-09T15:31:14.121Z,66.23
2018-02-09T15:33:41.572Z,54.95
2018-02-09T15:36:09.036Z,53.87
2018-02-09T15:38:36.474Z,55.50
2018-02-09T15:41:03.923Z,57.93
2018-02-09T15:43:31.370Z,55.90
2018-02-09T15:45:58.797Z,50.37
2018-02-09T15:48:26.259Z,50.70
2018-02-09T15:50:53.733Z,49.00
2018-02-09T15:53:21.186Z,47.77
2018-02-09T15:55:48.660Z,52.57
2018-02-09T15:58:16.108Z,56.50
2018-02-09T16:00:43.563Z,51.90
2018-02-09T16:03:11.079Z,52.97
2018-02-09T16:05:39.512Z,49.20
2018-02-09T16:08:06.986Z,49.47
2018-02-09T16:10:34.420Z,46.63
2018-02-09T16:13:01.888Z,51.57
2018-02-09T16:15:29.377Z,49.93
2018-02-09T16:17:56.822Z,45.73
2018-02-09T16:20:24.265Z,48.40
2018-02-09T16:22:51.774Z,45.97
2018-02-09T16:25:19.720Z,46.33
2018-02-09T16:27:53.466Z,43.38
2018-02-09T16:30:22.060Z,42.60
2018-02-09T16:32:49.610Z,52.00
2018-02-09T16:35:17.035Z,43.57
2018-02-09T16:37:44.466Z,49.40
2018-02-09T16:40:11.956Z,46.17
2018-02-09T16:42:39.453Z,48.97
2018-02-09T16:45:06.919Z,43.87
2018-02-09T16:47:34.465Z,44.23
2018-02-09T16:50:01.917Z,45.70
2018-02-09T16:52:29.350Z,47.60
2018-02-09T16:54:56.804Z,48.03
2018-02-09T16:57:24.329Z,45.40
2018-02-09T16:59:51.947Z,47.95
2018-02-09T17:02:19.600Z,45.00
2018-02-09T17:04:47.065Z,49.20
2018-02-09T17:07:14.508Z,43.87
2018-02-09T17:09:41.979Z,46.13
2018-02-09T17:12:09.443Z,45.33
2018-02-09T17:14:36.919Z,68.20
2018-02-09T17:17:04.431Z,51.20
2018-02-09T17:19:31.918Z,54.53
2018-02-09T17:21:59.379Z,51.03
2018-02-09T17:24:26.818Z,45.80
2018-02-09T17:26:54.736Z,47.53
2018-02-09T17:29:22.194Z,47.77
2018-02-09T17:31:49.671Z,46.43
2018-02-09T17:34:17.113Z,53.13
2018-02-09T17:36:44.711Z,51.20
2018-02-09T17:39:12.141Z,50.23
2018-02-09T17:41:39.656Z,45.97
2018-02-09T17:44:07.286Z,46.80
2018-02-09T17:46:34.806Z,52.87
2018-02-09T17:49:02.244Z,47.70
2018-02-09T17:51:29.791Z,50.97
2018-02-09T17:53:57.228Z,47.93
2018-02-09T17:56:24.693Z,47.37
2018-02-09T17:58:52.152Z,46.07
2018-02-09T18:01:19.803Z,49.73
2018-02-09T18:03:47.257Z,49.33
2018-02-09T18:06:14.730Z,49.58
2018-02-09T18:08:42.184Z,47.00
2018-02-09T18:11:09.644Z,52.90
2018-02-09T18:13:40.889Z,51.10
2018-02-09T18:16:10.374Z,46.37
2018-02-09T18:18:38.047Z,44.80
2018-02-09T18:21:05.614Z,44.60
2018-02-09T18:23:33.121Z,44.57
2018-02-09T18:26:00.610Z,45.20
2018-02-09T18:28:28.118Z,43.33
2018-02-09T18:30:55.668Z,69.73
2018-02-09T18:33:23.133Z,60.50
2018-02-09T18:35:50.557Z,53.08
2018-02-09T18:38:18.033Z,45.40
2018-02-09T18:40:45.476Z,54.60
2018-02-09T18:43:13.028Z,49.08
2018-02-09T18:45:40.452Z,47.63
2018-02-09T18:48:07.876Z,51.27
2018-02-09T18:50:35.600Z,50.10
2018-02-09T18:53:03.048Z,47.15
2018-02-09T18:55:30.498Z,51.83
2018-02-09T18:57:58.067Z,64.73
2018-02-09T19:00:25.521Z,52.60
2018-02-09T19:02:52.970Z,54.73
2018-02-09T19:05:20.486Z,60.43
2018-02-09T19:07:47.956Z,50.58
2018-02-09T19:10:15.439Z,58.87
2018-02-09T19:12:42.876Z,43.17
2018-02-09T19:15:10.337Z,53.80
2018-02-09T19:17:37.778Z,50.50
2018-02-09T19:20:05.372Z,49.30
2018-02-09T19:22:32.800Z,43.20
2018-02-09T19:25:00.366Z,47.90
2018-02-09T19:27:27.803Z,41.60
2018-02-09T19:29:55.337Z,47.93
2018-02-09T19:32:23.301Z,44.05
2018-02-09T19:34:50.757Z,46.53
2018-02-09T19:37:18.215Z,53.53
2018-02-09T19:39:45.696Z,61.00
2018-02-09T19:42:13.133Z,44.95
2018-02-09T19:44:40.636Z,45.93
2018-02-09T19:47:08.096Z,45.37
2018-02-09T19:49:35.539Z,46.40
2018-02-09T19:52:02.996Z,44.27
2018-02-09T19:54:30.437Z,50.30
2018-02-09T19:56:57.893Z,46.20
2018-02-09T19:59:25.337Z,46.80
2018-02-09T20:01:52.785Z,49.73
2018-02-09T20:04:20.242Z,44.33
2018-02-09T20:06:47.735Z,46.60
2018-02-09T20:09:15.228Z,41.20
2018-02-09T20:11:42.737Z,43.33
2018-02-09T20:14:10.241Z,44.70
2018-02-09T20:16:37.696Z,45.83
2018-02-09T20:19:05.134Z,43.50
2018-02-09T20:21:32.656Z,46.08
2018-02-09T20:24:00.111Z,48.20
2018-02-09T20:26:27.565Z,43.73
2018-02-09T20:28:55.036Z,41.97
2018-02-09T20:31:22.534Z,47.73
2018-02-09T20:33:50.023Z,48.20
2018-02-09T20:36:17.533Z,47.27
2018-02-09T20:38:45.007Z,46.10
2018-02-09T20:41:12.669Z,45.63
2018-02-09T20:43:40.138Z,46.07
2018-02-09T20:46:07.562Z,44.70
2018-02-09T20:48:35.404Z,49.27
2018-02-09T20:51:02.840Z,47.67
2018-02-09T20:53:30.291Z,47.10
2018-02-09T20:55:57.757Z,49.55
2018-02-09T20:58:25.204Z,46.30
2018-02-09T21:00:52.660Z,40.90
2018-02-09T21:03:20.131Z,41.33
2018-02-09T21:05:47.588Z,47.17
2018-02-09T21:08:15.031Z,50.10
2018-02-09T21:10:42.473Z,40.42
2018-02-09T21:13:09.964Z,49.16
2018-02-09T21:15:37.406Z,47.10
2018-02-09T21:18:05.373Z,41.17
2018-02-09T21:20:33.877Z,49.33
2018-02-09T21:23:07.561Z,49.50
2018-02-09T21:25:35.415Z,45.53
2018-02-09T21:28:02.891Z,43.40
2018-02-09T21:30:30.357Z,44.70
2018-02-09T21:32:57.833Z,47.75
2018-02-09T21:35:25.284Z,47.20
2018-02-09T21:37:52.823Z,47.13
2018-02-09T21:40:20.360Z,47.23
2018-02-09T21:42:49.834Z,47.60
2018-02-09T21:45:17.339Z,44.90
2018-02-09T21:47:44.789Z,42.58
2018-02-09T21:50:12.239Z,41.90
2018-02-09T21:52:39.713Z,46.95
2018-02-09T21:55:07.181Z,43.77
2018-02-09T21:57:35.203Z,47.30
2018-02-09T22:00:02.809Z,48.13
2018-02-09T22:02:30.450Z,43.83
2018-02-09T22:04:58.037Z,42.57
2018-02-09T22:07:25.728Z,47.77
2018-02-09T22:09:54.441Z,43.40
2018-02-09T22:12:23.903Z,46.30
2018-02-09T22:14:51.425Z,48.70
2018-02-09T22:17:20.402Z,44.97
2018-02-09T22:19:48.574Z,44.63
2018-02-09T22:22:16.085Z,43.25
2018-02-09T22:24:43.784Z,51.80
2018-02-09T22:27:11.550Z,47.60
2018-02-09T22:29:39.213Z,50.83
2018-02-09T22:32:06.735Z,43.07
2018-02-09T22:34:35.295Z,51.25
2018-02-09T22:37:03.094Z,49.27
2018-02-09T22:39:30.593Z,46.50
2018-02-09T22:42:03.687Z,49.30
2018-02-09T22:44:31.255Z,46.50
2018-02-09T22:46:58.724Z,42.37
2018-02-09T22:49:26.161Z,49.83
2018-02-09T22:51:53.663Z,47.37
2018-02-09T22:54:21.253Z,44.93
2018-02-09T22:56:48.788Z,50.40
2018-02-09T22:59:16.333Z,48.22
2018-02-09T23:01:43.802Z,50.60
2018-02-09T23:04:11.253Z,47.60
2018-02-09T23:06:38.732Z,46.90
2018-02-09T23:09:06.165Z,46.10
2018-02-09T23:11:33.767Z,48.47
2018-02-09T23:14:01.397Z,52.93
2018-02-09T23:16:28.846Z,47.57
2018-02-09T23:18:56.309Z,46.17
2018-02-09T23:21:23.767Z,45.03
2018-02-09T23:23:51.240Z,47.83
2018-02-09T23:26:18.690Z,48.97
2018-02-09T23:28:46.137Z,47.15
2018-02-09T23:31:13.596Z,46.27
2018-02-09T23:33:41.174Z,51.10
2018-02-09T23:36:08.621Z,43.83
2018-02-09T23:38:36.148Z,51.30
2018-02-09T23:41:03.587Z,47.07
2018-02-09T23:43:31.070Z,49.30
2018-02-09T23:45:58.531Z,47.08
2018-02-09T23:48:26.009Z,46.93
2018-02-09T23:50:53.455Z,49.23
2018-02-09T23:53:20.920Z,48.67
